Time;durP1;ratioP1;P1;durP2;ratioP2;P2;SDS_P1;SDS_P2;PMS_P1;PMS_P2;Temp;Humidity;BMP_temperature;BMP_pressure;BME280_temperature;BME280_humidity;BME280_pressure;Samples;Min_cycle;Max_cycle;Signal;HPM_P1;HPM_P2
2021/03/21 00:01:07;;;;;;;24.90;20.93;;;7.60;99.90;;;;;;5033865;28;20450;-77
2021/03/21 00:03:33;;;;;;;29.63;22.17;;;7.60;99.90;;;;;;5034305;28;20214;-77
2021/03/21 00:05:59;;;;;;;31.77;24.40;;;7.60;99.90;;;;;;5034094;28;20444;-76
2021/03/21 00:08:29;;;;;;;30.97;23.80;;;7.50;99.90;;;;;;5032681;28;20962;-77
2021/03/21 00:11:04;;;;;;;33.00;24.83;;;7.50;99.90;;;;;;5034279;28;20267;-76
2021/03/21 00:13:30;;;;;;;31.60;23.80;;;7.40;99.90;;;;;;5033769;28;20467;-77
2021/03/21 00:15:57;;;;;;;33.33;24.57;;;7.40;99.90;;;;;;5032829;28;20837;-77
2021/03/21 00:18:25;;;;;;;35.50;23.23;;;7.40;99.90;;;;;;5033812;28;20472;-77
2021/03/21 00:20:51;;;;;;;31.03;23.13;;;7.40;99.90;;;;;;5033465;28;20430;-77
2021/03/21 00:23:18;;;;;;;32.87;23.40;;;7.40;99.90;;;;;;5033908;28;20426;-76
2021/03/21 00:25:44;;;;;;;32.10;24.87;;;7.30;99.90;;;;;;5033556;28;20167;-76
2021/03/21 00:28:14;;;;;;;34.90;24.37;;;7.30;99.90;;;;;;5033697;28;20442;-76
2021/03/21 00:30:43;;;;;;;32.50;24.90;;;7.30;99.90;;;;;;5033498;28;20418;-77
2021/03/21 00:33:12;;;;;;;30.23;22.87;;;7.30;99.90;;;;;;5033584;28;20429;-78
2021/03/21 00:35:38;;;;;;;29.23;22.20;;;7.30;99.90;;;;;;5033165;28;20438;-76
2021/03/21 00:38:07;;;;;;;29.53;22.60;;;7.20;99.90;;;;;;5032099;28;20446;-76
2021/03/21 00:40:34;;;;;;;26.83;21.03;;;7.20;99.90;;;;;;5031913;28;20464;-77
2021/03/21 00:42:59;;;;;;;26.73;20.67;;;7.20;99.90;;;;;;5031987;28;20453;-76
2021/03/21 00:45:26;;;;;;;28.83;21.57;;;7.20;99.90;;;;;;5032177;28;20442;-76
2021/03/21 00:47:53;;;;;;;29.07;22.47;;;7.20;99.90;;;;;;5030956;28;20199;-76
2021/03/21 00:50:31;;;;;;;30.23;22.90;;;7.20;99.90;;;;;;5031671;28;20410;-76
2021/03/21 00:52:56;;;;;;;29.23;22.23;;;7.20;99.90;;;;;;5032069;28;20410;-76
2021/03/21 00:55:23;;;;;;;26.03;20.50;;;7.20;99.90;;;;;;5031389;28;20454;-76
2021/03/21 00:57:49;;;;;;;30.70;21.93;;;7.20;99.90;;;;;;5032074;28;20191;-76
2021/03/21 01:00:32;;;;;;;25.00;19.23;;;7.10;99.90;;;;;;5031412;28;20912;-76
2021/03/21 01:02:58;;;;;;;26.70;19.97;;;7.00;99.90;;;;;;5006159;28;20175;-76
2021/03/21 01:05:25;;;;;;;31.50;21.40;;;7.00;99.90;;;;;;5017009;28;20785;-77
2021/03/21 01:07:55;;;;;;;25.03;18.57;;;7.00;99.90;;;;;;5032128;28;20183;-76
2021/03/21 01:10:39;;;;;;;27.03;19.70;;;7.00;99.90;;;;;;5031297;28;20571;-76
2021/03/21 01:13:04;;;;;;;24.53;16.93;;;7.10;99.90;;;;;;5031848;28;20935;-76
2021/03/21 01:15:30;;;;;;;23.43;18.70;;;7.00;99.90;;;;;;5030462;28;20446;-76
2021/03/21 01:17:57;;;;;;;26.53;18.80;;;7.00;99.90;;;;;;5031972;28;20195;-76
2021/03/21 01:20:27;;;;;;;24.37;16.07;;;6.90;99.90;;;;;;5047241;28;20418;-77
2021/03/21 01:22:53;;;;;;;26.00;17.87;;;7.00;99.90;;;;;;5032107;28;20410;-77
2021/03/21 01:25:21;;;;;;;28.33;18.77;;;6.90;99.90;;;;;;5030791;28;20799;-77
2021/03/21 01:27:47;;;;;;;27.23;19.40;;;6.90;99.90;;;;;;5031966;28;20187;-77
2021/03/21 01:30:13;;;;;;;24.00;17.57;;;6.80;99.90;;;;;;5031577;28;20402;-77
2021/03/21 01:32:39;;;;;;;24.80;17.33;;;6.80;99.90;;;;;;5031752;28;20182;-77
2021/03/21 01:35:06;;;;;;;23.20;17.07;;;6.80;99.90;;;;;;5030622;28;20458;-77
2021/03/21 01:37:32;;;;;;;25.50;16.33;;;6.70;99.90;;;;;;5032156;28;20195;-78
2021/03/21 01:39:58;;;;;;;24.40;17.10;;;6.70;99.90;;;;;;5031644;28;20401;-77
2021/03/21 01:42:23;;;;;;;30.33;18.73;;;6.60;99.90;;;;;;5031570;28;20410;-77
2021/03/21 01:44:53;;;;;;;25.23;17.90;;;6.60;99.90;;;;;;5033205;28;20222;-77
2021/03/21 01:47:33;;;;;;;21.47;16.93;;;6.70;99.90;;;;;;5035833;28;20445;-77
2021/03/21 01:50:19;;;;;;;22.87;16.43;;;6.60;99.90;;;;;;5035540;28;20442;-77
2021/03/21 01:52:45;;;;;;;25.03;18.10;;;6.60;99.90;;;;;;5034089;28;20418;-77
2021/03/21 01:55:13;;;;;;;22.13;18.13;;;6.50;99.90;;;;;;5035556;28;20484;-77
2021/03/21 01:57:39;;;;;;;25.97;18.60;;;6.50;99.90;;;;;;5037367;28;20195;-78
2021/03/21 02:00:08;;;;;;;24.27;17.90;;;6.50;99.90;;;;;;5039705;28;20417;-77
2021/03/21 02:02:34;;;;;;;26.40;18.00;;;6.50;99.90;;;;;;5039539;28;20402;-78
2021/03/21 02:04:59;;;;;;;24.63;16.70;;;6.60;99.90;;;;;;5039858;28;20455;-78
2021/03/21 02:07:59;;;;;;;26.00;16.30;;;6.50;99.90;;;;;;5037876;28;20258;-77
2021/03/21 02:10:47;;;;;;;22.13;17.40;;;6.50;99.90;;;;;;5036474;28;20965;-76
2021/03/21 02:13:37;;;;;;;24.40;16.40;;;6.50;99.90;;;;;;5039678;28;20536;-79
2021/03/21 02:16:18;;;;;;;21.00;15.73;;;6.20;99.90;;;;;;5040106;28;20398;-79
2021/03/21 02:18:55;;;;;;;22.30;16.20;;;6.10;99.90;;;;;;5037500;28;20454;-77
2021/03/21 02:21:43;;;;;;;29.10;18.17;;;6.20;99.90;;;;;;5038024;28;20754;-78
2021/03/21 02:24:32;;;;;;;25.43;15.77;;;6.00;99.90;;;;;;5037430;28;20505;-78
2021/03/21 02:27:01;;;;;;;19.27;14.90;;;6.10;99.90;;;;;;5038476;28;20414;-78
2021/03/21 02:30:00;;;;;;;22.97;16.60;;;6.10;99.90;;;;;;5037110;28;20429;-79
2021/03/21 02:33:02;;;;;;;22.00;16.83;;;6.10;99.90;;;;;;5039128;28;20418;-78
2021/03/21 02:35:55;;;;;;;23.33;15.30;;;6.10;99.90;;;;;;5041248;28;20453;-78
2021/03/21 02:38:46;;;;;;;21.83;16.43;;;6.10;99.90;;;;;;5038160;28;20429;-78
2021/03/21 02:41:23;;;;;;;20.47;15.00;;;6.10;99.90;;;;;;5038624;28;21086;-77
2021/03/21 02:44:07;;;;;;;28.37;15.23;;;6.00;99.90;;;;;;5038356;28;20429;-77
2021/03/21 02:46:38;;;;;;;22.53;15.17;;;6.00;99.90;;;;;;5038239;28;20921;-78
2021/03/21 02:49:12;;;;;;;20.90;15.00;;;6.00;99.90;;;;;;5036395;28;20425;-76
2021/03/21 02:51:42;;;;;;;22.00;15.70;;;6.00;99.90;;;;;;5043416;28;20503;-78
2021/03/21 02:54:11;;;;;;;21.20;13.17;;;6.10;99.90;;;;;;5031814;28;20478;-78
2021/03/21 02:56:41;;;;;;;21.37;14.60;;;6.00;99.90;;;;;;5017050;28;20426;-76
2021/03/21 02:59:18;;;;;;;21.30;14.60;;;6.10;99.90;;;;;;5054935;28;20422;-76
2021/03/21 03:01:52;;;;;;;24.43;15.37;;;6.20;99.90;;;;;;5042249;28;20406;-76
2021/03/21 03:04:25;;;;;;;20.87;14.50;;;6.00;99.90;;;;;;5034840;28;20761;-76
2021/03/21 03:07:00;;;;;;;19.40;13.40;;;5.90;99.90;;;;;;5043360;28;20417;-76
2021/03/21 03:09:36;;;;;;;22.97;14.67;;;6.00;99.90;;;;;;5069826;28;20436;-76
2021/03/21 03:12:09;;;;;;;22.80;16.50;;;5.80;99.90;;;;;;5052661;28;20413;-76
2021/03/21 03:14:37;;;;;;;21.57;15.53;;;5.70;99.90;;;;;;5034803;28;20973;-77
2021/03/21 03:17:39;;;;;;;19.40;14.93;;;5.80;99.90;;;;;;5034563;28;20410;-77
2021/03/21 03:20:23;;;;;;;21.70;15.27;;;5.90;99.90;;;;;;5030614;28;20406;-77
2021/03/21 03:23:02;;;;;;;23.33;16.63;;;6.00;99.90;;;;;;5034628;28;20394;-77
2021/03/21 03:25:34;;;;;;;22.43;15.20;;;6.00;99.90;;;;;;5034710;28;20404;-76
2021/03/21 03:28:18;;;;;;;22.10;16.70;;;6.10;99.90;;;;;;5034278;28;20542;-77
2021/03/21 03:31:03;;;;;;;21.40;14.60;;;6.10;99.90;;;;;;5033982;28;20755;-76
2021/03/21 03:33:29;;;;;;;23.77;15.27;;;6.20;99.90;;;;;;5034150;28;20417;-77
2021/03/21 03:35:55;;;;;;;24.97;15.17;;;6.20;99.90;;;;;;5032979;28;20422;-77
2021/03/21 03:38:21;;;;;;;24.97;17.17;;;6.20;99.90;;;;;;5034177;28;20184;-77
2021/03/21 03:40:47;;;;;;;22.20;15.43;;;6.10;99.90;;;;;;5033759;28;20517;-76
2021/03/21 03:43:27;;;;;;;22.20;15.60;;;6.20;99.90;;;;;;5033968;28;20460;-76
2021/03/21 03:46:42;;;;;;;21.57;15.63;;;6.10;99.90;;;;;;5016694;28;20415;-76
2021/03/21 03:49:07;;;;;;;23.13;14.47;;;6.20;99.90;;;;;;4992251;28;20467;-78
2021/03/21 03:51:42;;;;;;;26.40;15.40;;;6.20;99.90;;;;;;4992088;28;21027;-76
2021/03/21 03:54:14;;;;;;;22.20;15.00;;;6.20;99.90;;;;;;5004838;28;20246;-77
2021/03/21 03:56:46;;;;;;;17.40;12.60;;;6.30;99.90;;;;;;5013871;28;20509;-77
2021/03/21 03:59:45;;;;;;;21.70;13.70;;;6.30;99.90;;;;;;5013682;28;20513;-77
2021/03/21 04:02:17;;;;;;;23.20;15.13;;;6.20;99.90;;;;;;5024601;28;20422;-76
2021/03/21 04:04:48;;;;;;;20.80;15.00;;;6.30;99.90;;;;;;5036129;28;20500;-76
2021/03/21 04:07:20;;;;;;;20.77;14.67;;;6.20;99.90;;;;;;5052935;28;20438;-76
2021/03/21 04:10:08;;;;;;;21.33;13.83;;;6.30;99.90;;;;;;5052989;28;20893;-76
2021/03/21 04:12:42;;;;;;;23.70;15.27;;;6.20;99.90;;;;;;5037345;28;20429;-76
2021/03/21 04:15:13;;;;;;;26.70;16.30;;;6.20;99.90;;;;;;5033345;28;20458;-76
2021/03/21 04:17:55;;;;;;;22.37;14.83;;;6.20;99.90;;;;;;5027966;28;20470;-76
2021/03/21 04:20:29;;;;;;;19.57;12.87;;;6.30;99.90;;;;;;5027960;28;20438;-77
2021/03/21 04:23:12;;;;;;;24.77;15.10;;;6.30;99.90;;;;;;5029772;28;20830;-77
2021/03/21 04:25:43;;;;;;;19.37;14.83;;;6.20;99.90;;;;;;5045179;28;20421;-76
2021/03/21 04:28:35;;;;;;;23.00;15.67;;;6.30;99.90;;;;;;5031215;28;20445;-77
2021/03/21 04:31:04;;;;;;;23.30;15.80;;;6.20;99.90;;;;;;5028809;28;20429;-76
2021/03/21 04:33:35;;;;;;;25.17;14.03;;;6.20;99.90;;;;;;5032565;28;20426;-76
2021/03/21 04:36:06;;;;;;;23.50;15.43;;;6.30;99.90;;;;;;5031972;28;20414;-76
2021/03/21 04:38:40;;;;;;;19.47;12.97;;;6.30;99.90;;;;;;5031499;28;20463;-75
2021/03/21 04:41:10;;;;;;;23.07;13.57;;;6.30;99.90;;;;;;5031925;28;20413;-76
2021/03/21 04:44:02;;;;;;;20.67;13.60;;;6.30;99.90;;;;;;5032189;28;20421;-76
2021/03/21 04:46:35;;;;;;;23.07;13.87;;;6.30;99.90;;;;;;5027609;28;20409;-76
2021/03/21 04:49:01;;;;;;;19.67;14.43;;;6.20;99.90;;;;;;5031349;28;20430;-76
2021/03/21 04:51:31;;;;;;;26.73;14.53;;;6.20;99.90;;;;;;5031571;28;20418;-77
2021/03/21 04:54:09;;;;;;;21.03;14.43;;;6.20;99.90;;;;;;5031710;28;20206;-76
2021/03/21 04:56:40;;;;;;;22.17;15.30;;;6.10;99.90;;;;;;5031796;28;20959;-78
2021/03/21 04:59:15;;;;;;;25.90;15.83;;;6.10;99.90;;;;;;5032339;28;20842;-76
2021/03/21 05:02:11;;;;;;;26.30;16.63;;;6.10;99.90;;;;;;5030666;28;20756;-76
2021/03/21 05:04:43;;;;;;;22.30;15.53;;;6.20;99.90;;;;;;5017692;28;20422;-77
2021/03/21 05:07:17;;;;;;;29.07;15.97;;;6.10;99.90;;;;;;5031812;28;21003;-74
2021/03/21 05:09:47;;;;;;;25.87;16.60;;;6.20;99.90;;;;;;5031262;28;20425;-76
2021/03/21 05:12:23;;;;;;;33.50;17.37;;;6.10;99.90;;;;;;5032005;28;20430;-76
2021/03/21 05:14:59;;;;;;;31.03;16.80;;;6.20;99.90;;;;;;5031643;28;20445;-76
2021/03/21 05:17:51;;;;;;;28.07;17.10;;;6.10;99.90;;;;;;5031905;28;20504;-76
2021/03/21 05:20:54;;;;;;;33.73;18.10;;;6.20;99.90;;;;;;5020727;28;20422;-76
2021/03/21 05:23:45;;;;;;;29.53;17.50;;;6.10;99.90;;;;;;5029604;28;20453;-78
2021/03/21 05:26:33;;;;;;;34.13;16.53;;;6.10;99.90;;;;;;5026854;28;20428;-76
2021/03/21 05:29:34;;;;;;;31.97;18.17;;;6.20;99.90;;;;;;5046645;28;20459;-76
2021/03/21 05:31:59;;;;;;;34.23;18.47;;;6.20;99.90;;;;;;5033483;28;20512;-76
2021/03/21 05:34:25;;;;;;;37.60;18.20;;;6.20;99.90;;;;;;5031416;28;20550;-76
2021/03/21 05:37:24;;;;;;;36.27;21.53;;;6.20;99.90;;;;;;5031829;28;20686;-77
2021/03/21 05:39:53;;;;;;;37.20;19.47;;;6.20;99.90;;;;;;5033885;28;20485;-78
2021/03/21 05:42:19;;;;;;;40.33;21.10;;;6.20;99.90;;;;;;5039097;28;20422;-76
2021/03/21 05:45:13;;;;;;;41.27;23.40;;;6.20;99.90;;;;;;5051217;28;20495;-77
2021/03/21 05:47:44;;;;;;;35.30;17.60;;;6.20;99.90;;;;;;5024464;28;20296;-77
2021/03/21 05:50:46;;;;;;;38.23;18.93;;;6.20;99.90;;;;;;5031505;28;20417;-76
2021/03/21 05:53:40;;;;;;;43.50;21.27;;;6.30;99.90;;;;;;5028283;28;21171;-76
2021/03/21 05:56:40;;;;;;;45.43;20.87;;;6.20;99.90;;;;;;5031795;28;20449;-75
2021/03/21 05:59:42;;;;;;;37.40;20.97;;;6.30;99.90;;;;;;5031811;28;20442;-76
2021/03/21 06:02:35;;;;;;;42.00;22.20;;;6.20;99.90;;;;;;5031105;28;20922;-77
2021/03/21 06:05:16;;;;;;;42.10;23.17;;;6.20;99.90;;;;;;5030374;28;20505;-78
2021/03/21 06:07:52;;;;;;;36.63;18.97;;;6.20;99.90;;;;;;5021467;28;20445;-76
2021/03/21 06:10:45;;;;;;;44.70;20.37;;;6.20;99.90;;;;;;5033319;28;20428;-77
2021/03/21 06:13:21;;;;;;;37.63;22.43;;;6.20;99.90;;;;;;5033861;28;20515;-77
2021/03/21 06:16:15;;;;;;;43.87;23.90;;;6.30;99.90;;;;;;5031868;28;20527;-76
2021/03/21 06:19:11;;;;;;;47.33;24.43;;;6.30;99.90;;;;;;5029703;28;20530;-76
2021/03/21 06:21:49;;;;;;;48.57;22.83;;;6.30;99.90;;;;;;5012756;28;20875;-77
2021/03/21 06:24:38;;;;;;;42.97;21.40;;;6.40;99.90;;;;;;5037491;28;20945;-76
2021/03/21 06:27:21;;;;;;;51.60;24.90;;;6.40;99.90;;;;;;5045506;28;20428;-76
2021/03/21 06:30:00;;;;;;;35.77;21.07;;;6.40;99.90;;;;;;5035545;28;20974;-76
2021/03/21 06:32:44;;;;;;;42.70;23.07;;;6.40;99.90;;;;;;5042765;28;20835;-76
2021/03/21 06:35:31;;;;;;;47.20;23.50;;;6.50;99.90;;;;;;5025375;28;20457;-76
2021/03/21 06:38:12;;;;;;;39.93;21.20;;;6.50;99.90;;;;;;5033957;28;20814;-76
2021/03/21 06:40:49;;;;;;;43.30;22.47;;;6.50;99.90;;;;;;5040843;28;20406;-76
2021/03/21 06:43:38;;;;;;;41.17;22.50;;;6.60;99.90;;;;;;5040125;28;20493;-78
2021/03/21 06:46:16;;;;;;;45.70;21.17;;;6.60;99.90;;;;;;5025890;28;20783;-76
2021/03/21 06:49:42;;;;;;;37.47;19.73;;;6.60;99.90;;;;;;5041751;28;20452;-76
2021/03/21 06:52:17;;;;;;;36.73;21.10;;;6.70;99.90;;;;;;4970833;28;21032;-77
2021/03/21 06:54:58;;;;;;;36.83;20.90;;;6.70;99.90;;;;;;5029228;28;20484;-77
2021/03/21 06:57:54;;;;;;;35.97;21.07;;;6.70;99.90;;;;;;5018576;28;20505;-76
2021/03/21 07:00:32;;;;;;;35.00;21.40;;;6.70;99.90;;;;;;5025889;28;20457;-76
2021/03/21 07:03:48;;;;;;;38.90;22.10;;;6.70;99.90;;;;;;5032888;28;20441;-76
2021/03/21 07:06:46;;;;;;;41.57;22.77;;;6.80;99.90;;;;;;5030305;28;20433;-75
2021/03/21 07:09:42;;;;;;;35.80;20.70;;;6.70;99.90;;;;;;5020410;28;20450;-76
2021/03/21 07:12:29;;;;;;;35.83;19.97;;;6.70;99.90;;;;;;5034197;28;20418;-76
2021/03/21 07:15:07;;;;;;;34.70;20.00;;;6.80;99.90;;;;;;5034285;28;20994;-77
2021/03/21 07:18:10;;;;;;;39.40;18.80;;;6.90;99.90;;;;;;5026616;28;20432;-78
2021/03/21 07:21:07;;;;;;;30.40;17.47;;;6.90;99.90;;;;;;5030916;28;20429;-75
2021/03/21 07:24:11;;;;;;;28.37;17.67;;;7.00;99.90;;;;;;5032680;28;20418;-77
2021/03/21 07:27:12;;;;;;;24.53;15.80;;;7.20;99.90;;;;;;5027416;28;20434;-77
2021/03/21 07:30:07;;;;;;;26.90;18.27;;;7.30;99.90;;;;;;5049702;28;20428;-76
2021/03/21 07:32:51;;;;;;;22.53;14.53;;;7.50;99.90;;;;;;5032682;28;20424;-77
2021/03/21 07:35:36;;;;;;;24.10;16.17;;;7.60;99.90;;;;;;5047042;28;20458;-78
2021/03/21 07:38:18;;;;;;;19.37;12.73;;;7.80;99.90;;;;;;5037587;28;20450;-76
2021/03/21 07:40:52;;;;;;;20.23;15.00;;;7.80;99.90;;;;;;5030268;28;20410;-76
2021/03/21 07:43:46;;;;;;;21.30;13.90;;;8.00;99.90;;;;;;5035505;28;20421;-77
2021/03/21 07:46:30;;;;;;;18.10;11.57;;;8.00;99.90;;;;;;5042474;28;20473;-77
2021/03/21 07:49:20;;;;;;;18.83;12.50;;;8.10;99.90;;;;;;5039259;28;20945;-76
2021/03/21 07:52:04;;;;;;;22.67;12.13;;;8.20;99.90;;;;;;5031603;28;20422;-77
2021/03/21 07:54:46;;;;;;;14.83;10.83;;;8.30;99.90;;;;;;5034746;28;20454;-78
2021/03/21 07:57:37;;;;;;;16.60;11.03;;;8.30;99.90;;;;;;5036774;28;20449;-76
2021/03/21 08:00:06;;;;;;;13.90;10.17;;;8.20;99.90;;;;;;5044690;28;20454;-76
2021/03/21 08:02:31;;;;;;;15.40;10.47;;;8.20;99.90;;;;;;5030836;28;20891;-76
2021/03/21 08:05:22;;;;;;;14.80;10.07;;;8.10;99.90;;;;;;5030430;28;20514;-77
2021/03/21 08:07:51;;;;;;;13.53;9.77;;;8.20;99.90;;;;;;5020670;28;20259;-77
2021/03/21 08:10:33;;;;;;;13.90;9.77;;;8.20;99.90;;;;;;5031737;28;20495;-76
2021/03/21 08:13:25;;;;;;;14.03;9.10;;;8.20;99.90;;;;;;5035834;28;20949;-77
2021/03/21 08:15:51;;;;;;;15.33;9.57;;;8.10;99.90;;;;;;5026707;28;20466;-76
2021/03/21 08:18:20;;;;;;;12.70;8.90;;;8.10;99.90;;;;;;5034173;28;20449;-77
2021/03/21 08:20:55;;;;;;;11.83;8.40;;;8.10;99.90;;;;;;5028501;28;20172;-78
2021/03/21 08:23:22;;;;;;;12.27;8.40;;;8.20;99.90;;;;;;5024861;28;20425;-77
2021/03/21 08:25:51;;;;;;;11.27;7.60;;;8.30;99.90;;;;;;5033010;28;20449;-76
2021/03/21 08:28:18;;;;;;;14.23;8.17;;;8.30;99.90;;;;;;5032020;28;20984;-78
2021/03/21 08:30:48;;;;;;;12.43;6.90;;;8.40;99.90;;;;;;5031133;28;20409;-76
2021/03/21 08:33:33;;;;;;;12.70;7.07;;;8.50;99.90;;;;;;5036653;28;20453;-76
2021/03/21 08:36:25;;;;;;;11.03;7.50;;;8.50;99.90;;;;;;5028417;28;20436;-77
2021/03/21 08:39:05;;;;;;;9.27;6.50;;;8.60;99.90;;;;;;5041961;28;20440;-76
2021/03/21 08:41:46;;;;;;;9.80;7.87;;;8.50;99.90;;;;;;5046931;28;20582;-77
2021/03/21 08:44:26;;;;;;;9.67;6.70;;;8.30;99.90;;;;;;5035594;28;20886;-76
2021/03/21 08:46:51;;;;;;;8.10;5.50;;;8.30;99.90;;;;;;5032147;28;20821;-76
2021/03/21 08:49:24;;;;;;;15.90;7.30;;;8.20;99.90;;;;;;5033883;28;20456;-77
2021/03/21 08:51:50;;;;;;;9.30;6.40;;;8.10;99.90;;;;;;5035292;28;20176;-76
2021/03/21 08:54:28;;;;;;;8.37;6.70;;;8.10;99.90;;;;;;5034747;28;20450;-77
2021/03/21 08:57:12;;;;;;;14.63;7.20;;;8.00;99.90;;;;;;5029582;28;20444;-77
2021/03/21 08:59:40;;;;;;;10.50;6.63;;;8.00;99.90;;;;;;5036766;28;20438;-76
2021/03/21 09:02:07;;;;;;;12.60;7.30;;;8.00;99.90;;;;;;5047469;28;20424;-77
2021/03/21 09:04:38;;;;;;;9.60;5.30;;;7.90;99.90;;;;;;5035981;28;20428;-78
2021/03/21 09:07:34;;;;;;;8.87;5.23;;;8.00;99.90;;;;;;5043061;28;20481;-76
2021/03/21 09:10:12;;;;;;;7.60;4.30;;;8.10;99.90;;;;;;5032827;28;20425;-76
2021/03/21 09:12:46;;;;;;;5.70;4.30;;;8.40;99.90;;;;;;5038945;28;20419;-77
2021/03/21 09:15:40;;;;;;;3.70;3.10;;;8.60;99.90;;;;;;5035078;28;20458;-75
2021/03/21 09:18:32;;;;;;;6.03;2.97;;;8.80;99.90;;;;;;5039811;28;20445;-77
2021/03/21 09:21:21;;;;;;;5.60;3.80;;;8.80;99.90;;;;;;5043493;28;20421;-76
2021/03/21 09:23:48;;;;;;;3.53;2.50;;;8.80;99.90;;;;;;5030983;28;20882;-76
2021/03/21 09:26:17;;;;;;;6.10;2.77;;;8.70;99.90;;;;;;5032178;28;20472;-76
2021/03/21 09:28:49;;;;;;;3.80;2.70;;;8.60;99.90;;;;;;5034201;28;20450;-76
2021/03/21 09:31:15;;;;;;;4.47;3.80;;;8.60;99.90;;;;;;5038087;28;20918;-76
2021/03/21 09:33:46;;;;;;;6.00;3.03;;;9.00;99.90;;;;;;5041638;28;20425;-76
2021/03/21 09:37:06;;;;;;;4.30;3.40;;;8.90;99.90;;;;;;5033143;28;20418;-77
2021/03/21 09:39:34;;;;;;;3.33;2.80;;;8.90;99.90;;;;;;4977665;28;20503;-76
2021/03/21 09:42:04;;;;;;;4.90;2.93;;;9.00;99.90;;;;;;5020305;28;20422;-76
2021/03/21 09:44:42;;;;;;;3.93;2.10;;;9.00;99.90;;;;;;5036657;28;20534;-76
2021/03/21 09:47:38;;;;;;;2.90;1.90;;;8.90;99.90;;;;;;5049382;28;20788;-77
2021/03/21 09:50:29;;;;;;;8.10;1.90;;;8.90;99.90;;;;;;5039055;28;20437;-77
2021/03/21 09:53:19;;;;;;;3.57;2.30;;;8.90;99.90;;;;;;5032442;28;20952;-77
2021/03/21 09:55:50;;;;;;;2.70;1.67;;;8.80;99.90;;;;;;5045024;28;20949;-77
2021/03/21 09:58:49;;;;;;;2.50;1.30;;;8.90;99.90;;;;;;5046097;28;20453;-77
2021/03/21 10:01:28;;;;;;;4.57;1.40;;;8.90;99.90;;;;;;5035056;28;20441;-76
2021/03/21 10:04:00;;;;;;;2.70;1.70;;;8.70;99.90;;;;;;5031582;28;20758;-76
2021/03/21 10:06:31;;;;;;;6.67;2.07;;;8.70;99.90;;;;;;5041929;28;20528;-76
2021/03/21 10:09:15;;;;;;;2.57;1.50;;;8.70;99.90;;;;;;5044352;28;20957;-77
2021/03/21 10:11:47;;;;;;;5.67;1.97;;;8.50;99.90;;;;;;5040573;28;20527;-76
2021/03/21 10:14:22;;;;;;;6.57;2.03;;;8.50;99.90;;;;;;5035815;28;20454;-76
2021/03/21 10:16:49;;;;;;;7.63;1.70;;;8.50;99.90;;;;;;5039450;28;20527;-75
2021/03/21 10:19:56;;;;;;;13.33;2.60;;;8.70;99.90;;;;;;5045294;28;20488;-76
2021/03/21 10:22:21;;;;;;;3.60;1.90;;;8.80;99.90;;;;;;5040462;28;20788;-76
2021/03/21 10:24:58;;;;;;;3.17;1.70;;;9.00;99.90;;;;;;5045826;28;20422;-76
2021/03/21 10:27:45;;;;;;;11.47;2.47;;;9.10;99.90;;;;;;5043260;28;20664;-76
2021/03/21 10:30:13;;;;;;;10.33;1.73;;;9.20;99.90;;;;;;5044148;28;20437;-77
2021/03/21 10:32:44;;;;;;;5.80;2.63;;;9.30;99.90;;;;;;5039143;28;20487;-76
2021/03/21 10:35:22;;;;;;;5.43;1.77;;;9.20;99.90;;;;;;5038713;28;20463;-76
2021/03/21 10:37:48;;;;;;;6.53;2.10;;;9.30;99.90;;;;;;5044886;28;20444;-76
2021/03/21 10:40:19;;;;;;;5.53;2.60;;;9.30;99.90;;;;;;5034612;28;20430;-76
2021/03/21 10:42:49;;;;;;;10.53;2.37;;;9.40;99.90;;;;;;5034303;28;20924;-76
2021/03/21 10:45:32;;;;;;;6.17;1.60;;;9.20;99.90;;;;;;5038020;28;20517;-76
2021/03/21 10:48:00;;;;;;;5.63;2.30;;;9.30;99.90;;;;;;5043806;28;20813;-76
2021/03/21 10:50:28;;;;;;;14.70;2.20;;;9.20;99.90;;;;;;5045351;28;20429;-76
2021/03/21 10:53:15;;;;;;;12.80;2.70;;;9.20;99.90;;;;;;5044105;28;20490;-76
2021/03/21 10:55:43;;;;;;;7.67;2.80;;;9.10;99.90;;;;;;5039295;28;20462;-76
2021/03/21 10:58:29;;;;;;;10.50;2.60;;;9.00;99.90;;;;;;5035649;28;20441;-76
2021/03/21 11:01:17;;;;;;;7.53;3.30;;;9.00;99.90;;;;;;5045954;28;20594;-76
2021/03/21 11:03:57;;;;;;;12.47;3.37;;;9.00;99.90;;;;;;5041626;28;20433;-76
2021/03/21 11:06:32;;;;;;;8.13;1.90;;;9.00;99.90;;;;;;5036422;28;20487;-76
2021/03/21 11:09:15;;;;;;;7.73;3.50;;;8.90;99.90;;;;;;5032574;28;20938;-76
2021/03/21 11:11:45;;;;;;;9.20;3.40;;;8.80;99.90;;;;;;5020401;28;20414;-76
2021/03/21 11:14:24;;;;;;;9.07;3.07;;;8.90;99.90;;;;;;5034144;28;20523;-77
2021/03/21 11:17:02;;;;;;;10.97;3.73;;;8.90;99.90;;;;;;5032102;28;20468;-76
2021/03/21 11:19:35;;;;;;;19.83;3.43;;;8.90;99.90;;;;;;5034119;28;20798;-75
2021/03/21 11:22:30;;;;;;;12.63;4.03;;;9.10;99.90;;;;;;5034460;28;20429;-76
2021/03/21 11:24:56;;;;;;;11.53;4.20;;;9.20;99.90;;;;;;5015134;28;20453;-76
2021/03/21 11:27:46;;;;;;;18.40;4.17;;;9.20;99.90;;;;;;5033430;28;20793;-76
2021/03/21 11:30:26;;;;;;;8.73;3.27;;;9.20;99.90;;;;;;5033001;28;20759;-76
2021/03/21 11:32:52;;;;;;;17.60;4.60;;;9.20;99.90;;;;;;5032125;28;20846;-77
2021/03/21 11:35:29;;;;;;;14.47;3.10;;;9.20;99.90;;;;;;5033164;28;20489;-77
2021/03/21 11:37:57;;;;;;;11.73;4.53;;;9.20;99.90;;;;;;5033093;28;20232;-76
2021/03/21 11:40:34;;;;;;;11.83;3.57;;;9.30;99.90;;;;;;5028920;28;20419;-76
2021/03/21 11:43:20;;;;;;;14.97;3.77;;;9.30;99.90;;;;;;5029560;28;20414;-76
2021/03/21 11:45:48;;;;;;;13.80;4.87;;;9.60;99.90;;;;;;5033199;28;20509;-76
2021/03/21 11:48:30;;;;;;;11.70;4.90;;;9.80;99.90;;;;;;5032647;28;20473;-76
2021/03/21 11:50:57;;;;;;;11.60;3.57;;;9.90;99.90;;;;;;5029398;28;20484;-76
2021/03/21 11:53:27;;;;;;;14.67;3.37;;;9.90;99.90;;;;;;5021364;28;20932;-76
2021/03/21 11:56:06;;;;;;;17.50;4.13;;;10.00;99.90;;;;;;5032628;28;20460;-76
2021/03/21 11:58:41;;;;;;;18.43;3.67;;;10.10;99.90;;;;;;5031134;28;20443;-76
2021/03/21 12:01:31;;;;;;;16.17;3.37;;;10.10;99.90;;;;;;5032371;28;20418;-76
2021/03/21 12:04:01;;;;;;;14.40;4.27;;;10.20;99.90;;;;;;5032553;28;20430;-76
2021/03/21 12:06:45;;;;;;;18.47;5.73;;;10.30;99.90;;;;;;5032593;28;20441;-76
2021/03/21 12:09:25;;;;;;;18.70;4.20;;;10.30;99.90;;;;;;5032447;28;20533;-76
2021/03/21 12:11:51;;;;;;;15.20;4.10;;;10.30;99.90;;;;;;5024682;28;20518;-76
2021/03/21 12:14:39;;;;;;;21.30;4.57;;;10.20;99.90;;;;;;5021095;28;21057;-76
2021/03/21 12:17:22;;;;;;;17.13;3.90;;;10.00;99.90;;;;;;5028516;28;20489;-76
2021/03/21 12:19:49;;;;;;;20.20;5.60;;;9.90;99.90;;;;;;5032090;28;20749;-77
2021/03/21 12:22:26;;;;;;;16.33;4.10;;;10.00;99.90;;;;;;5036998;28;20459;-75
2021/03/21 12:24:54;;;;;;;19.93;3.80;;;10.10;99.90;;;;;;5050876;28;20437;-75
2021/03/21 12:27:36;;;;;;;16.40;4.90;;;10.00;99.90;;;;;;5037103;28;20880;-76
2021/03/21 12:30:24;;;;;;;15.27;3.80;;;10.10;99.90;;;;;;5032877;28;20425;-77
2021/03/21 12:32:51;;;;;;;21.00;4.67;;;10.10;99.90;;;;;;5019235;28;20564;-76
2021/03/21 12:35:23;;;;;;;14.20;4.57;;;10.10;99.90;;;;;;5030065;28;20492;-75
2021/03/21 12:37:56;;;;;;;16.43;5.20;;;10.10;99.90;;;;;;5037246;28;20450;-77
2021/03/21 12:40:36;;;;;;;14.80;3.87;;;10.00;99.90;;;;;;5031271;28;20414;-76
2021/03/21 12:43:22;;;;;;;13.17;3.37;;;9.90;99.90;;;;;;5034219;28;20604;-76
2021/03/21 12:46:07;;;;;;;20.17;5.73;;;9.90;99.90;;;;;;5026639;28;20863;-76
2021/03/21 12:48:55;;;;;;;16.50;4.03;;;9.60;99.90;;;;;;5036408;28;20443;-77
2021/03/21 12:51:32;;;;;;;29.50;6.13;;;9.70;99.90;;;;;;5033673;28;20434;-76
2021/03/21 12:54:01;;;;;;;22.47;4.57;;;9.70;99.90;;;;;;5031326;28;20838;-76
2021/03/21 12:56:26;;;;;;;16.03;4.70;;;9.90;99.90;;;;;;5035469;28;20456;-76
2021/03/21 12:58:52;;;;;;;17.20;5.57;;;9.90;99.90;;;;;;5036262;28;20438;-76
2021/03/21 13:01:20;;;;;;;10.70;3.70;;;9.80;99.90;;;;;;5030814;28;20255;-76
2021/03/21 13:03:45;;;;;;;18.47;4.37;;;9.80;99.90;;;;;;5044383;28;20432;-76
2021/03/21 13:06:11;;;;;;;24.20;5.00;;;9.80;99.90;;;;;;5035733;28;20432;-76
2021/03/21 13:08:36;;;;;;;30.17;7.23;;;9.90;99.90;;;;;;5031421;28;20191;-74
2021/03/21 13:11:05;;;;;;;23.00;4.30;;;9.90;99.90;;;;;;5030321;28;20175;-74
2021/03/21 13:13:32;;;;;;;19.87;6.00;;;9.80;99.90;;;;;;5031174;28;20170;-74
2021/03/21 13:15:57;;;;;;;16.93;5.00;;;9.90;99.90;;;;;;5031486;28;20450;-76
2021/03/21 13:18:23;;;;;;;31.30;5.63;;;9.90;99.90;;;;;;5030881;28;20437;-74
2021/03/21 13:20:52;;;;;;;21.00;4.87;;;9.80;99.90;;;;;;5030928;28;20253;-74
2021/03/21 13:23:19;;;;;;;19.60;4.53;;;9.80;99.90;;;;;;5029618;28;20425;-74
2021/03/21 13:25:45;;;;;;;17.63;4.60;;;9.80;99.90;;;;;;5030627;28;20472;-74
2021/03/21 13:28:11;;;;;;;33.93;5.67;;;9.90;99.90;;;;;;5027205;28;20449;-75
2021/03/21 13:30:40;;;;;;;14.07;4.70;;;9.90;99.90;;;;;;5031205;28;20425;-75
2021/03/21 13:33:07;;;;;;;14.57;4.60;;;9.90;99.90;;;;;;5029871;28;21341;-75
2021/03/21 13:35:33;;;;;;;25.97;6.53;;;9.90;99.90;;;;;;5031339;28;20796;-75